Time;durP1;ratioP1;P1;durP2;ratioP2;P2;SDS_P1;SDS_P2;PMS_P1;PMS_P2;Temp;Humidity;BMP_temperature;BMP_pressure;BME280_temperature;BME280_humidity;BME280_pressure;Samples;Min_cycle;Max_cycle;Signal;HPM_P1;HPM_P2
2023/07/08 00:00:23;;;;;;;8.35;5.13;;;19.20;1.00;;;;;;5029775;28;20049;-57
2023/07/08 00:02:48;;;;;;;9.10;5.18;;;19.10;1.00;;;;;;5030343;28;20034;-57
2023/07/08 00:05:16;;;;;;;8.73;5.90;;;19.00;1.00;;;;;;5028668;28;20041;-56
2023/07/08 00:07:42;;;;;;;8.20;5.10;;;19.00;1.00;;;;;;5029957;28;20144;-56
2023/07/08 00:10:20;;;;;;;7.38;5.50;;;18.90;1.00;;;;;;5029731;28;20085;-56
2023/07/08 00:12:49;;;;;;;7.55;5.97;;;18.90;1.00;;;;;;5029811;28;20508;-56
2023/07/08 00:15:16;;;;;;;8.75;6.00;;;18.90;1.00;;;;;;5030055;28;20557;-56
2023/07/08 00:17:42;;;;;;;8.43;6.43;;;18.90;1.00;;;;;;5028435;28;20041;-56
2023/07/08 00:20:17;;;;;;;7.13;6.38;;;18.90;1.00;;;;;;5029650;28;20044;-56
2023/07/08 00:22:46;;;;;;;6.57;5.45;;;18.90;1.00;;;;;;5029885;28;20089;-57
2023/07/08 00:25:14;;;;;;;8.10;6.03;;;18.80;1.00;;;;;;5029494;28;20068;-56
2023/07/08 00:27:39;;;;;;;10.93;7.72;;;18.80;1.00;;;;;;5029900;28;20064;-56
2023/07/08 00:30:25;;;;;;;9.38;6.38;;;18.80;1.00;;;;;;5011775;28;20038;-57
2023/07/08 00:32:53;;;;;;;12.07;7.40;;;18.80;1.00;;;;;;5029118;28;20132;-56
2023/07/08 00:35:28;;;;;;;9.07;6.55;;;19.10;1.00;;;;;;5025890;28;20460;-56
2023/07/08 00:38:01;;;;;;;13.50;6.40;;;18.80;1.00;;;;;;5029453;28;20400;-57
2023/07/08 00:40:29;;;;;;;10.82;6.53;;;18.80;1.00;;;;;;5029358;28;20099;-57
2023/07/08 00:42:56;;;;;;;9.05;5.88;;;18.80;1.00;;;;;;5044693;28;20547;-57
2023/07/08 00:45:46;;;;;;;8.23;7.10;;;18.80;1.00;;;;;;5029838;28;20045;-57
2023/07/08 00:48:19;;;;;;;8.95;6.72;;;18.80;1.00;;;;;;5029774;28;20041;-57
2023/07/08 00:50:44;;;;;;;11.23;8.00;;;18.70;1.00;;;;;;5029705;28;20049;-57
2023/07/08 00:53:23;;;;;;;10.98;8.05;;;18.70;1.00;;;;;;5029536;28;20049;-57
2023/07/08 00:55:49;;;;;;;9.73;5.97;;;18.70;1.00;;;;;;5029633;28;20120;-56
2023/07/08 00:58:18;;;;;;;7.07;6.28;;;18.80;1.00;;;;;;5028374;28;20441;-57
2023/07/08 01:00:44;;;;;;;9.30;6.80;;;18.70;1.00;;;;;;5044369;28;20467;-56
2023/07/08 01:03:10;;;;;;;13.27;7.30;;;18.60;1.00;;;;;;5030392;28;20076;-57
2023/07/08 01:05:38;;;;;;;8.52;7.10;;;18.70;1.00;;;;;;5033210;28;20515;-57
2023/07/08 01:08:06;;;;;;;11.43;6.55;;;18.70;1.00;;;;;;5033327;28;20116;-57
2023/07/08 01:10:43;;;;;;;9.70;6.57;;;18.70;1.00;;;;;;5032781;28;20099;-57
2023/07/08 01:13:10;;;;;;;13.30;7.65;;;18.70;1.00;;;;;;5033170;28;20475;-57
2023/07/08 01:15:41;;;;;;;9.60;8.38;;;18.70;1.00;;;;;;5031561;28;20053;-57
2023/07/08 01:18:09;;;;;;;10.93;9.88;;;18.70;1.00;;;;;;5033253;28;20488;-56
2023/07/08 01:20:34;;;;;;;13.27;9.70;;;18.60;1.00;;;;;;5032818;28;20048;-56
2023/07/08 01:23:00;;;;;;;9.43;7.75;;;18.70;1.00;;;;;;5032931;28;20037;-56
2023/07/08 01:25:26;;;;;;;9.73;7.00;;;18.60;1.00;;;;;;5032517;28;20038;-57
2023/07/08 01:27:55;;;;;;;7.30;4.80;;;18.60;1.00;;;;;;5032646;28;20500;-56
2023/07/08 01:30:21;;;;;;;9.57;6.70;;;18.60;1.00;;;;;;5032956;28;20049;-57
2023/07/08 01:32:55;;;;;;;7.30;5.93;;;18.60;1.00;;;;;;5032893;28;20127;-57
2023/07/08 01:35:21;;;;;;;8.90;6.53;;;19.00;1.00;;;;;;5032604;28;20438;-58
2023/07/08 01:37:54;;;;;;;11.43;7.10;;;18.70;1.00;;;;;;5032649;28;20406;-57
2023/07/08 01:40:24;;;;;;;9.23;7.28;;;18.90;1.00;;;;;;5032216;28;20444;-57
2023/07/08 01:42:51;;;;;;;6.28;5.53;;;18.70;1.00;;;;;;5032231;28;20064;-56
2023/07/08 01:45:19;;;;;;;9.32;6.38;;;18.60;1.00;;;;;;5032408;28;20069;-56
2023/07/08 01:47:56;;;;;;;7.70;6.38;;;18.70;1.00;;;;;;5021206;28;20073;-58
2023/07/08 01:50:23;;;;;;;12.32;9.07;;;18.60;1.00;;;;;;5024536;28;20052;-56
2023/07/08 01:52:50;;;;;;;9.20;7.20;;;18.60;1.00;;;;;;5032486;28;20044;-56
2023/07/08 01:55:21;;;;;;;11.35;7.90;;;18.60;1.00;;;;;;5032069;28;20045;-57
2023/07/08 01:57:47;;;;;;;7.90;6.43;;;18.60;1.00;;;;;;5032470;28;20099;-57
2023/07/08 02:00:13;;;;;;;10.88;9.23;;;18.60;1.00;;;;;;5032143;28;20487;-57
2023/07/08 02:02:38;;;;;;;8.48;7.30;;;18.50;1.00;;;;;;5032294;28;20782;-57
2023/07/08 02:05:04;;;;;;;10.32;8.43;;;18.50;1.00;;;;;;5032413;28;20037;-57
2023/07/08 02:07:30;;;;;;;11.43;8.77;;;18.50;1.00;;;;;;5032010;28;20068;-56
2023/07/08 02:09:55;;;;;;;9.93;8.30;;;18.50;1.00;;;;;;5027804;28;20484;-57
2023/07/08 02:12:21;;;;;;;11.23;9.80;;;18.50;1.00;;;;;;5012331;28;20050;-57
2023/07/08 02:14:46;;;;;;;11.00;9.90;;;18.60;1.00;;;;;;5016765;28;20044;-57
2023/07/08 02:17:16;;;;;;;11.98;9.00;;;18.50;1.00;;;;;;5032044;28;20048;-56
2023/07/08 02:19:42;;;;;;;12.88;9.25;;;18.60;1.00;;;;;;5031691;28;20041;-57
2023/07/08 02:22:08;;;;;;;12.25;10.90;;;18.40;1.00;;;;;;5031860;28;20052;-57
2023/07/08 02:24:33;;;;;;;9.98;8.73;;;18.40;1.00;;;;;;5031612;28;20303;-57
2023/07/08 02:26:59;;;;;;;13.50;9.95;;;18.40;1.00;;;;;;5030515;28;20125;-57
2023/07/08 02:29:25;;;;;;;11.32;10.18;;;18.40;1.00;;;;;;5063471;28;20128;-57
2023/07/08 02:31:51;;;;;;;15.35;10.95;;;18.30;1.00;;;;;;5031558;28;20044;-57
2023/07/08 02:34:17;;;;;;;12.80;11.63;;;18.30;1.00;;;;;;5031590;28;20041;-57
2023/07/08 02:36:43;;;;;;;12.63;11.43;;;18.50;1.00;;;;;;5031760;28;20545;-57
2023/07/08 02:39:10;;;;;;;16.45;14.65;;;18.30;1.00;;;;;;5030566;28;20048;-57
2023/07/08 02:41:36;;;;;;;15.93;13.55;;;18.30;1.00;;;;;;5031569;28;20404;-57
2023/07/08 02:44:02;;;;;;;17.45;15.75;;;18.20;1.00;;;;;;5031433;28;20057;-56
2023/07/08 02:46:27;;;;;;;16.52;14.15;;;18.30;1.00;;;;;;5031343;28;20049;-56
2023/07/08 02:48:53;;;;;;;11.50;10.20;;;18.30;1.00;;;;;;5031379;28;20037;-57
2023/07/08 02:51:19;;;;;;;20.90;19.00;;;18.30;1.00;;;;;;5031150;28;20045;-57
2023/07/08 02:53:44;;;;;;;22.48;20.73;;;18.30;1.00;;;;;;5031624;28;20086;-57
2023/07/08 02:56:10;;;;;;;26.88;24.67;;;18.20;1.00;;;;;;5030674;28;20415;-57
2023/07/08 02:58:36;;;;;;;24.58;22.52;;;18.20;1.00;;;;;;5025738;28;20488;-56
2023/07/08 03:01:01;;;;;;;30.30;27.60;;;18.20;1.00;;;;;;5015046;28;20610;-57
2023/07/08 03:03:31;;;;;;;29.48;27.08;;;18.20;3.30;;;;;;5011238;28;20116;-57
2023/07/08 03:06:02;;;;;;;30.25;27.85;;;18.20;4.50;;;;;;5023273;28;20037;-57
2023/07/08 03:08:29;;;;;;;24.70;22.70;;;18.20;7.70;;;;;;5030784;28;20045;-56
2023/07/08 03:11:00;;;;;;;29.65;27.15;;;18.20;10.20;;;;;;5030076;28;20129;-56
2023/07/08 03:13:26;;;;;;;19.08;17.20;;;18.20;12.20;;;;;;5030311;28;20077;-57
2023/07/08 03:15:52;;;;;;;22.55;20.50;;;18.20;13.90;;;;;;5031004;28;20045;-56
2023/07/08 03:18:18;;;;;;;24.60;22.60;;;18.20;14.40;;;;;;5030844;28;20041;-56
2023/07/08 03:20:44;;;;;;;29.13;26.83;;;18.10;14.60;;;;;;5030992;28;20041;-56
2023/07/08 03:23:11;;;;;;;16.38;14.98;;;18.10;16.70;;;;;;5030616;28;20518;-56
2023/07/08 03:25:37;;;;;;;21.48;19.42;;;18.30;17.20;;;;;;5030482;28;20087;-56
2023/07/08 03:28:05;;;;;;;22.27;20.42;;;18.20;15.60;;;;;;5030336;28;20076;-56
2023/07/08 03:30:32;;;;;;;26.05;23.90;;;18.20;14.30;;;;;;5030653;28;20045;-56
2023/07/08 03:32:58;;;;;;;27.67;25.25;;;18.20;13.50;;;;;;5030639;28;20041;-57
2023/07/08 03:35:23;;;;;;;24.65;22.75;;;18.20;12.90;;;;;;5030095;28;20048;-56
2023/07/08 03:37:49;;;;;;;16.48;15.05;;;18.20;10.90;;;;;;5030401;28;20041;-56
2023/07/08 03:40:14;;;;;;;16.75;15.25;;;18.30;8.30;;;;;;5030217;28;20079;-56
2023/07/08 03:42:40;;;;;;;23.90;21.90;;;18.30;8.00;;;;;;5030299;28;20053;-56
2023/07/08 03:45:06;;;;;;;15.35;12.48;;;18.30;8.40;;;;;;5030449;28;20053;-56
2023/07/08 03:47:32;;;;;;;22.90;20.90;;;18.30;5.40;;;;;;5030702;28;20029;-57
2023/07/08 03:49:57;;;;;;;21.98;19.98;;;18.30;5.40;;;;;;5030566;28;20049;-56
2023/07/08 03:52:23;;;;;;;13.77;12.45;;;18.30;5.10;;;;;;5030366;28;20049;-56
2023/07/08 03:54:49;;;;;;;17.20;15.68;;;18.30;1.00;;;;;;5030478;28;20029;-57
2023/07/08 03:57:14;;;;;;;15.68;14.27;;;18.70;1.00;;;;;;5045611;28;20091;-57
2023/07/08 03:59:40;;;;;;;14.95;13.60;;;18.30;1.00;;;;;;5030346;28;20052;-56
2023/07/08 04:02:10;;;;;;;15.10;13.65;;;18.40;1.00;;;;;;5030218;28;20506;-56
2023/07/08 04:04:35;;;;;;;13.80;12.45;;;18.40;1.00;;;;;;5030039;28;20124;-56
2023/07/08 04:07:01;;;;;;;11.23;10.07;;;18.40;1.00;;;;;;5029541;28;20121;-56
2023/07/08 04:09:26;;;;;;;16.65;15.10;;;18.80;1.00;;;;;;5030195;28;20071;-57
2023/07/08 04:11:52;;;;;;;11.88;9.85;;;18.60;1.00;;;;;;5026178;28;20048;-57
2023/07/08 04:14:18;;;;;;;14.63;12.60;;;18.40;1.00;;;;;;5030132;28;20034;-56
2023/07/08 04:16:57;;;;;;;14.57;12.68;;;18.50;1.00;;;;;;5029793;28;20075;-57
2023/07/08 04:19:23;;;;;;;12.85;10.48;;;18.50;1.00;;;;;;5029770;28;20514;-57
2023/07/08 04:21:49;;;;;;;14.35;11.55;;;18.50;1.00;;;;;;5029910;28;20045;-57
2023/07/08 04:24:16;;;;;;;14.05;12.77;;;18.50;1.00;;;;;;5030051;28;20037;-56
2023/07/08 04:26:46;;;;;;;11.55;10.10;;;18.50;1.00;;;;;;5029750;28;20044;-57
2023/07/08 04:29:22;;;;;;;13.45;12.10;;;18.50;1.00;;;;;;5029842;28;20049;-57
2023/07/08 04:31:48;;;;;;;14.00;12.75;;;18.60;1.00;;;;;;5030259;28;20494;-57
2023/07/08 04:34:15;;;;;;;13.07;11.60;;;18.60;1.00;;;;;;5029743;28;20045;-57
2023/07/08 04:36:41;;;;;;;13.05;10.70;;;18.60;1.00;;;;;;5029768;28;20111;-57
2023/07/08 04:39:08;;;;;;;10.57;9.05;;;18.60;1.00;;;;;;5064163;28;20471;-57
2023/07/08 04:41:34;;;;;;;12.60;11.30;;;18.70;1.00;;;;;;5033763;28;20045;-57
2023/07/08 04:44:02;;;;;;;10.85;9.13;;;18.70;1.00;;;;;;5034031;28;20416;-56
2023/07/08 04:46:50;;;;;;;11.27;10.23;;;18.80;1.00;;;;;;5033498;28;20099;-56
2023/07/08 04:49:17;;;;;;;13.02;8.48;;;18.80;1.00;;;;;;5033803;28;20123;-57
2023/07/08 04:51:43;;;;;;;9.23;7.53;;;18.80;1.00;;;;;;5031989;28;20106;-57
2023/07/08 04:54:09;;;;;;;13.05;8.52;;;18.80;1.00;;;;;;5033508;28;20050;-57
2023/07/08 04:56:38;;;;;;;10.73;9.40;;;18.90;1.00;;;;;;5033425;28;20076;-57
2023/07/08 04:59:05;;;;;;;11.07;9.98;;;18.90;1.00;;;;;;5033174;28;20048;-57
2023/07/08 05:01:30;;;;;;;10.00;8.93;;;18.90;1.00;;;;;;5065118;28;20046;-57
2023/07/08 05:03:56;;;;;;;11.93;9.13;;;18.90;1.00;;;;;;5033506;28;20034;-57
2023/07/08 05:06:22;;;;;;;11.27;8.73;;;19.00;1.00;;;;;;5033231;28;20134;-57
2023/07/08 05:08:47;;;;;;;12.20;8.70;;;19.00;1.00;;;;;;5033195;28;20029;-57
2023/07/08 05:11:13;;;;;;;13.45;12.05;;;19.00;1.00;;;;;;5026120;28;20107;-57
2023/07/08 05:13:38;;;;;;;11.23;9.40;;;19.00;1.00;;;;;;5033099;28;20037;-57
2023/07/08 05:16:04;;;;;;;10.02;8.82;;;19.10;1.00;;;;;;5033301;28;20059;-57
2023/07/08 05:18:30;;;;;;;11.55;10.45;;;19.10;1.00;;;;;;5033372;28;20475;-57
2023/07/08 05:20:56;;;;;;;11.27;10.18;;;19.10;1.00;;;;;;5032863;28;20103;-57
2023/07/08 05:23:21;;;;;;;12.75;9.68;;;19.20;1.00;;;;;;5033033;28;20041;-57
2023/07/08 05:25:47;;;;;;;12.27;8.93;;;19.20;1.00;;;;;;5032807;28;20044;-57
2023/07/08 05:28:13;;;;;;;10.70;8.48;;;19.20;1.00;;;;;;5032848;28;20546;-57
2023/07/08 05:30:40;;;;;;;10.23;7.43;;;19.30;1.00;;;;;;5048060;28;21025;-57
2023/07/08 05:33:06;;;;;;;9.23;8.00;;;19.30;1.00;;;;;;5032938;28;20069;-57
2023/07/08 05:35:32;;;;;;;12.93;8.00;;;19.30;1.00;;;;;;5032625;28;20087;-57
2023/07/08 05:37:57;;;;;;;8.40;6.97;;;19.40;1.00;;;;;;5032683;28;20081;-57
2023/07/08 05:40:23;;;;;;;8.88;6.97;;;19.40;1.00;;;;;;5032635;28;20387;-57
2023/07/08 05:42:48;;;;;;;5.97;5.38;;;19.50;1.00;;;;;;5032004;28;20068;-57
2023/07/08 05:45:14;;;;;;;12.48;6.07;;;19.50;1.00;;;;;;5031297;28;20050;-57
2023/07/08 05:47:40;;;;;;;8.32;6.57;;;19.60;1.00;;;;;;5032474;28;20087;-57
2023/07/08 05:50:06;;;;;;;9.82;5.68;;;19.60;1.00;;;;;;5032520;28;20095;-57
2023/07/08 05:52:31;;;;;;;8.07;5.68;;;19.70;1.00;;;;;;5032747;28;20221;-57
2023/07/08 05:54:57;;;;;;;10.27;5.70;;;19.80;1.00;;;;;;5032666;28;20121;-57
2023/07/08 05:57:25;;;;;;;7.18;5.32;;;19.90;1.00;;;;;;5031188;28;20114;-58
2023/07/08 05:59:51;;;;;;;8.10;5.35;;;19.90;1.00;;;;;;5032315;28;20041;-57
2023/07/08 06:02:19;;;;;;;9.40;5.57;;;20.00;1.00;;;;;;5032334;28;20044;-58
2023/07/08 06:04:45;;;;;;;6.35;5.00;;;20.10;1.00;;;;;;5032243;28;20053;-57
2023/07/08 06:07:10;;;;;;;7.57;5.22;;;20.10;1.00;;;;;;5031814;28;20037;-57
2023/07/08 06:09:36;;;;;;;8.48;5.00;;;20.20;1.00;;;;;;5031030;28;20041;-58
2023/07/08 06:12:01;;;;;;;10.50;5.18;;;20.30;1.00;;;;;;5023020;28;20051;-57
2023/07/08 06:14:28;;;;;;;6.55;4.75;;;20.30;1.00;;;;;;5031950;28;20079;-57
2023/07/08 06:16:54;;;;;;;6.78;4.32;;;20.40;1.00;;;;;;5032054;28;20025;-58
2023/07/08 06:19:21;;;;;;;5.80;4.40;;;20.40;1.00;;;;;;5030729;28;20454;-57
2023/07/08 06:21:46;;;;;;;7.20;4.40;;;20.70;1.00;;;;;;5031801;28;20071;-58
2023/07/08 06:24:12;;;;;;;8.95;4.13;;;20.60;1.00;;;;;;5031782;28;20124;-57
2023/07/08 06:26:37;;;;;;;7.25;4.57;;;20.70;1.00;;;;;;5031639;28;20034;-57
2023/07/08 06:29:04;;;;;;;7.90;4.70;;;20.80;1.00;;;;;;5031647;28;20076;-57
2023/07/08 06:31:29;;;;;;;8.85;4.28;;;20.90;1.00;;;;;;5047158;28;20044;-57
2023/07/08 06:33:55;;;;;;;6.80;4.40;;;21.10;1.00;;;;;;5031655;28;20041;-56
2023/07/08 06:36:22;;;;;;;8.13;4.28;;;21.20;1.00;;;;;;5031466;28;20052;-57
2023/07/08 06:38:47;;;;;;;6.22;4.30;;;21.30;1.00;;;;;;5031542;28;20507;-57
2023/07/08 06:41:13;;;;;;;10.07;3.95;;;21.50;1.00;;;;;;5031342;28;20056;-57
2023/07/08 06:43:38;;;;;;;7.25;3.97;;;21.60;1.00;;;;;;5031228;28;20053;-57
2023/07/08 06:46:06;;;;;;;13.50;4.10;;;21.70;1.00;;;;;;5031339;28;20503;-57
2023/07/08 06:48:31;;;;;;;5.60;3.63;;;21.90;1.00;;;;;;5029590;28;20053;-57
2023/07/08 06:50:58;;;;;;;4.65;3.70;;;22.10;1.00;;;;;;5031201;28;20103;-57
2023/07/08 06:53:23;;;;;;;5.53;3.35;;;22.20;1.00;;;;;;5031039;28;20037;-57
2023/07/08 06:55:49;;;;;;;4.10;3.38;;;22.40;1.00;;;;;;5031142;28;20108;-57
2023/07/08 06:58:15;;;;;;;4.57;2.95;;;22.60;1.00;;;;;;5046170;28;20050;-57
2023/07/08 07:00:44;;;;;;;7.43;4.00;;;22.90;1.00;;;;;;5030578;28;20049;-57
2023/07/08 07:03:11;;;;;;;5.82;3.90;;;22.90;1.00;;;;;;5046510;28;20045;-57
2023/07/08 07:05:37;;;;;;;8.18;4.15;;;23.00;1.00;;;;;;5031259;28;20048;-57
2023/07/08 07:08:03;;;;;;;6.70;3.70;;;23.10;1.00;;;;;;5030844;28;20422;-57
2023/07/08 07:10:29;;;;;;;6.75;4.07;;;23.30;1.00;;;;;;5030660;28;20045;-57
2023/07/08 07:12:55;;;;;;;4.35;3.17;;;23.50;1.00;;;;;;5030612;28;20099;-57
2023/07/08 07:15:20;;;;;;;5.43;3.30;;;23.70;1.00;;;;;;5029681;28;20041;-57
2023/07/08 07:17:46;;;;;;;4.70;3.50;;;23.80;1.00;;;;;;5028154;28;20049;-57
2023/07/08 07:20:12;;;;;;;10.05;4.03;;;24.00;1.00;;;;;;5014685;28;20034;-57
2023/07/08 07:22:37;;;;;;;7.22;3.40;;;24.10;1.00;;;;;;5023077;28;20043;-57
2023/07/08 07:25:04;;;;;;;5.10;3.38;;;24.10;1.00;;;;;;5030455;28;20029;-58
2023/07/08 07:27:30;;;;;;;7.68;3.80;;;24.20;1.00;;;;;;5030214;28;20029;-57
2023/07/08 07:29:59;;;;;;;8.05;3.38;;;24.20;99.90;;;;;;5030366;28;20159;-57
2023/07/08 07:32:25;;;;;;;7.43;3.00;;;24.30;1.00;;;;;;5030322;28;20048;-57
2023/07/08 07:34:51;;;;;;;7.35;3.05;;;24.40;99.90;;;;;;5030284;28;20116;-57
2023/07/08 07:37:19;;;;;;;4.80;3.38;;;24.40;99.90;;;;;;5030060;28;20051;-57
2023/07/08 07:39:45;;;;;;;8.43;3.70;;;24.50;99.90;;;;;;5030184;28;20034;-58
2023/07/08 07:42:13;;;;;;;7.75;2.97;;;24.70;99.90;;;;;;5029954;28;20427;-58
2023/07/08 07:44:39;;;;;;;4.78;3.40;;;24.90;99.90;;;;;;5030007;28;20053;-57
2023/07/08 07:47:05;;;;;;;5.07;3.08;;;25.00;99.90;;;;;;5030503;28;20550;-58
2023/07/08 07:49:31;;;;;;;5.40;3.33;;;25.00;99.90;;;;;;5030259;28;20053;-58
2023/07/08 07:51:57;;;;;;;8.40;3.40;;;25.00;99.90;;;;;;5029679;28;20026;-58
2023/07/08 07:54:22;;;;;;;6.88;3.75;;;25.20;99.90;;;;;;5030086;28;20077;-57
2023/07/08 07:56:48;;;;;;;7.35;3.80;;;25.50;99.90;;;;;;5029795;28;20073;-58
2023/07/08 07:59:14;;;;;;;8.35;3.50;;;25.50;99.90;;;;;;5030129;28;20407;-58
2023/07/08 08:01:40;;;;;;;6.00;3.10;;;25.80;99.90;;;;;;5030198;28;20061;-57
2023/07/08 08:04:06;;;;;;;4.07;2.70;;;25.70;99.90;;;;;;5029883;28;20148;-58
2023/07/08 08:06:32;;;;;;;3.92;3.20;;;25.90;99.90;;;;;;5061624;28;20411;-58
2023/07/08 08:08:57;;;;;;;6.40;3.50;;;25.90;99.90;;;;;;5029692;28;20498;-58
2023/07/08 08:11:25;;;;;;;5.38;3.17;;;26.10;99.90;;;;;;5013981;28;20037;-58
2023/07/08 08:13:51;;;;;;;4.47;3.22;;;26.20;99.90;;;;;;5028344;28;20183;-58
2023/07/08 08:16:16;;;;;;;8.27;3.40;;;26.10;99.90;;;;;;5029866;28;20108;-58
2023/07/08 08:18:42;;;;;;;5.22;3.13;;;26.40;99.90;;;;;;5029750;28;20120;-57
2023/07/08 08:21:08;;;;;;;6.88;3.55;;;26.50;99.90;;;;;;5029644;28;20440;-57
2023/07/08 08:23:33;;;;;;;7.28;3.33;;;26.70;99.90;;;;;;5029415;28;20045;-58
2023/07/08 08:25:59;;;;;;;4.45;3.13;;;26.70;99.90;;;;;;5029688;28;20033;-58
2023/07/08 08:28:24;;;;;;;7.45;3.80;;;26.70;99.90;;;;;;5029351;28;20476;-58
2023/07/08 08:30:50;;;;;;;6.47;3.28;;;26.80;99.90;;;;;;5028654;28;20057;-58
2023/07/08 08:33:17;;;;;;;6.88;3.50;;;26.90;99.90;;;;;;5029637;28;20045;-58
2023/07/08 08:35:44;;;;;;;4.63;3.05;;;27.20;99.90;;;;;;5029577;28;20045;-58
2023/07/08 08:38:09;;;;;;;8.35;3.40;;;27.30;99.90;;;;;;5029430;28;20034;-58
2023/07/08 08:40:35;;;;;;;9.50;3.17;;;27.50;99.90;;;;;;5029371;28;20139;-58
2023/07/08 08:43:17;;;;;;;6.65;3.40;;;27.70;99.90;;;;;;5029217;28;20053;-58
2023/07/08 08:45:59;;;;;;;5.82;2.97;;;27.70;99.90;;;;;;5029467;28;20064;-58
2023/07/08 08:48:27;;;;;;;7.90;3.30;;;27.70;99.90;;;;;;5029389;28;20044;-58
2023/07/08 08:50:56;;;;;;;5.97;3.35;;;27.40;99.90;;;;;;5029421;28;20045;-58
2023/07/08 08:53:24;;;;;;;3.58;2.97;;;27.60;99.90;;;;;;5029337;28;20404;-58
2023/07/08 08:55:56;;;;;;;6.63;3.22;;;27.50;99.90;;;;;;5029352;28;20049;-58
2023/07/08 08:58:45;;;;;;;4.35;3.40;;;27.50;99.90;;;;;;5027931;28;20053;-58
2023/07/08 09:01:13;;;;;;;4.82;3.25;;;27.70;99.90;;;;;;5028080;28;20130;-58
2023/07/08 09:03:55;;;;;;;4.13;3.10;;;27.70;99.90;;;;;;5029183;28;20123;-58
2023/07/08 09:06:27;;;;;;;5.63;3.30;;;27.60;99.90;;;;;;5029578;28;20065;-58
2023/07/08 09:08:55;;;;;;;5.22;3.38;;;27.70;99.90;;;;;;5029302;28;20041;-58
2023/07/08 09:11:47;;;;;;;9.60;3.63;;;27.80;99.90;;;;;;5029491;28;20054;-58
2023/07/08 09:14:25;;;;;;;8.73;3.70;;;27.80;99.90;;;;;;5029470;28;20128;-58
2023/07/08 09:17:33;;;;;;;6.55;3.30;;;28.00;99.90;;;;;;5045212;28;20496;-58
2023/07/08 09:20:28;;;;;;;7.10;3.50;;;28.10;99.90;;;;;;5029390;28;20451;-58
2023/07/08 09:22:59;;;;;;;7.05;3.25;;;28.10;99.90;;;;;;5029419;28;20037;-58
2023/07/08 09:25:36;;;;;;;7.28;3.08;;;28.30;99.90;;;;;;5031990;28;20515;-58
2023/07/08 09:28:02;;;;;;;8.23;3.50;;;28.50;99.90;;;;;;5032488;28;20311;-58
2023/07/08 09:30:31;;;;;;;5.60;3.05;;;28.70;99.90;;;;;;5032912;28;20076;-58
2023/07/08 09:32:57;;;;;;;6.03;3.13;;;28.80;99.90;;;;;;5032562;28;20041;-58
2023/07/08 09:35:26;;;;;;;5.28;3.47;;;28.70;99.90;;;;;;5032883;28;20091;-58
2023/07/08 09:37:52;;;;;;;8.57;3.70;;;28.80;99.90;;;;;;5032385;28;20092;-58
2023/07/08 09:40:38;;;;;;;4.90;3.17;;;28.90;99.90;;;;;;5032669;28;20107;-58
2023/07/08 09:43:26;;;;;;;5.70;3.28;;;28.90;99.90;;;;;;5031941;28;20045;-58
2023/07/08 09:45:58;;;;;;;5.97;3.50;;;28.80;99.90;;;;;;5032812;28;20561;-59
2023/07/08 09:48:30;;;;;;;10.23;3.25;;;28.60;99.90;;;;;;5032120;28;20046;-59
2023/07/08 09:50:58;;;;;;;8.48;3.20;;;28.80;99.90;;;;;;5032399;28;20033;-58
2023/07/08 09:53:26;;;;;;;11.75;3.20;;;28.60;99.90;;;;;;5032063;28;20053;-58
2023/07/08 09:55:53;;;;;;;10.38;3.28;;;28.80;99.90;;;;;;5032062;28;20045;-59
2023/07/08 09:58:25;;;;;;;8.65;3.70;;;28.90;99.90;;;;;;5032227;28;20547;-58
2023/07/08 10:01:01;;;;;;;6.68;3.30;;;28.80;99.90;;;;;;5032103;28;20129;-58
2023/07/08 10:03:30;;;;;;;;;;;29.00;99.90;;;;;;5032689;28;20045;-59
2023/07/08 10:06:00;;;;;;;5.55;3.30;;;29.10;99.90;;;;;;5032149;28;19917;-59
2023/07/08 10:08:30;;;;;;;5.75;3.33;;;29.10;99.90;;;;;;5031913;28;20081;-59
2023/07/08 10:11:09;;;;;;;4.53;3.30;;;29.10;99.90;;;;;;5051875;28;20054;-59
2023/07/08 10:13:45;;;;;;;5.65;3.33;;;28.90;99.90;;;;;;5022624;28;20037;-58
2023/07/08 10:16:25;;;;;;;7.15;3.70;;;28.90;99.90;;;;;;5032251;28;20053;-58
2023/07/08 10:18:51;;;;;;;5.28;3.67;;;28.90;99.90;;;;;;5015779;28;20098;-58
2023/07/08 10:21:34;;;;;;;3.97;3.10;;;28.90;99.90;;;;;;5031816;28;20494;-59
2023/07/08 10:24:15;;;;;;;4.80;3.50;;;29.00;99.90;;;;;;5031906;28;20138;-58
2023/07/08 10:26:42;;;;;;;12.77;3.63;;;29.00;99.90;;;;;;5047422;28;20502;-59
2023/07/08 10:29:14;;;;;;;4.85;3.53;;;29.10;99.90;;;;;;5046816;28;20430;-59
2023/07/08 10:31:42;;;;;;;7.78;3.47;;;29.20;99.90;;;;;;5031620;28;20060;-58
2023/07/08 10:34:30;;;;;;;9.27;3.47;;;29.00;99.90;;;;;;5031778;28;20131;-59
2023/07/08 10:37:17;;;;;;;4.95;3.33;;;29.10;99.90;;;;;;5030954;28;20049;-58
2023/07/08 10:39:55;;;;;;;5.18;3.50;;;29.10;99.90;;;;;;5031685;28;20057;-58
2023/07/08 10:42:47;;;;;;;8.65;3.47;;;29.10;99.90;;;;;;5031736;28;20529;-59
2023/07/08 10:45:35;;;;;;;4.75;3.45;;;29.30;99.90;;;;;;5055439;28;20129;-58
2023/07/08 10:48:46;;;;;;;5.20;3.22;;;29.30;99.90;;;;;;5031292;28;20056;-58
2023/07/08 10:51:17;;;;;;;10.23;3.70;;;29.30;99.90;;;;;;5031534;28;20517;-59
2023/07/08 10:54:30;;;;;;;5.47;3.33;;;29.50;99.90;;;;;;5031114;28;20050;-59
2023/07/08 10:57:17;;;;;;;5.68;3.20;;;29.50;99.90;;;;;;5018942;28;20144;-58
2023/07/08 11:00:07;;;;;;;6.60;3.33;;;29.50;99.90;;;;;;5031065;28;20136;-59
2023/07/08 11:02:47;;;;;;;7.05;3.60;;;29.60;99.90;;;;;;5031310;28;20037;-59
2023/07/08 11:05:29;;;;;;;5.50;3.35;;;29.60;99.90;;;;;;5031178;28;20047;-58
2023/07/08 11:08:23;;;;;;;5.85;3.58;;;29.60;99.90;;;;;;5031018;28;20037;-59
2023/07/08 11:10:58;;;;;;;4.53;3.40;;;29.70;99.90;;;;;;5019905;28;20042;-58
2023/07/08 11:13:27;;;;;;;9.13;3.60;;;29.60;99.90;;;;;;5016587;28;20446;-59
2023/07/08 11:16:12;;;;;;;11.20;3.53;;;29.60;99.90;;;;;;5031200;28;20049;-58
2023/07/08 11:18:48;;;;;;;12.93;3.67;;;29.70;99.90;;;;;;5030920;28;20120;-59
2023/07/08 11:21:36;;;;;;;5.40;3.70;;;29.60;99.90;;;;;;5030791;28;20041;-59
2023/07/08 11:24:18;;;;;;;5.68;3.15;;;29.60;99.90;;;;;;5030452;28;20037;-58
2023/07/08 11:26:52;;;;;;;5.38;3.60;;;29.70;99.90;;;;;;5030914;28;20083;-59
2023/07/08 11:29:20;;;;;;;8.95;3.72;;;29.70;99.90;;;;;;5023076;28;20124;-58
2023/07/08 11:31:47;;;;;;;5.75;3.28;;;29.60;99.90;;;;;;5029388;28;20049;-58
2023/07/08 11:34:15;;;;;;;5.75;3.90;;;29.70;99.90;;;;;;5030406;28;20033;-58
2023/07/08 11:36:43;;;;;;;8.95;3.78;;;29.70;99.90;;;;;;5030471;28;20076;-58
2023/07/08 11:39:37;;;;;;;8.32;3.63;;;29.80;99.90;;;;;;5030514;28;20415;-58
2023/07/08 11:42:23;;;;;;;5.93;3.28;;;29.70;99.90;;;;;;5030475;28;20495;-58
2023/07/08 11:44:56;;;;;;;5.97;3.60;;;29.80;99.90;;;;;;5030413;28;20050;-59
2023/07/08 11:47:34;;;;;;;4.97;3.55;;;29.70;99.90;;;;;;5030209;28;20037;-58
2023/07/08 11:50:01;;;;;;;6.82;3.40;;;29.80;99.90;;;;;;5030456;28;20048;-59
2023/07/08 11:52:29;;;;;;;5.90;3.90;;;29.70;99.90;;;;;;5030313;28;20033;-58
2023/07/08 11:55:02;;;;;;;6.25;3.67;;;29.60;99.90;;;;;;5028882;28;20132;-58
2023/07/08 11:57:34;;;;;;;9.02;3.70;;;29.60;99.90;;;;;;5030579;28;20037;-58
2023/07/08 12:00:12;;;;;;;5.18;3.90;;;29.60;99.90;;;;;;5030628;28;20053;-58
2023/07/08 12:02:58;;;;;;;7.65;3.60;;;29.50;99.90;;;;;;5030647;28;20041;-58
2023/07/08 12:05:34;;;;;;;;;;;29.60;99.90;;;;;;5030646;28;20506;-59
2023/07/08 12:08:03;;;;;;;7.47;3.30;;;29.70;99.90;;;;;;5030036;28;19921;-58
2023/07/08 12:10:35;;;;;;;13.63;3.85;;;29.70;99.90;;;;;;5029885;28;20052;-58
2023/07/08 12:13:01;;;;;;;7.55;4.25;;;29.80;99.90;;;;;;5030142;28;20794;-59
2023/07/08 12:15:32;;;;;;;7.40;4.57;;;30.00;99.90;;;;;;5030156;28;20136;-58
2023/07/08 12:18:15;;;;;;;7.63;3.97;;;30.00;99.90;;;;;;5030146;28;20128;-58
2023/07/08 12:20:44;;;;;;;4.25;3.75;;;30.00;99.90;;;;;;5010368;28;20057;-58
2023/07/08 12:23:17;;;;;;;8.52;4.15;;;29.90;99.90;;;;;;5042163;28;20037;-58
2023/07/08 12:25:43;;;;;;;5.80;3.53;;;29.90;99.90;;;;;;5010268;28;20045;-58
2023/07/08 12:28:12;;;;;;;5.43;3.85;;;30.10;99.90;;;;;;5041906;28;20042;-58
2023/07/08 12:30:38;;;;;;;6.25;3.85;;;30.20;99.90;;;;;;5029802;28;20041;-58
2023/07/08 12:33:11;;;;;;;6.05;3.88;;;30.10;99.90;;;;;;5030130;28;20092;-58
2023/07/08 12:35:36;;;;;;;13.63;4.10;;;30.10;99.90;;;;;;5028558;28;20557;-58
2023/07/08 12:38:14;;;;;;;8.05;4.07;;;30.20;99.90;;;;;;5029967;28;20041;-58
2023/07/08 12:40:40;;;;;;;4.93;3.53;;;30.20;99.90;;;;;;5029770;28;20050;-58
2023/07/08 12:43:10;;;;;;;5.40;4.00;;;30.20;99.90;;;;;;5029477;28;20064;-58
2023/07/08 12:45:36;;;;;;;7.65;4.25;;;30.20;99.90;;;;;;5011324;28;20053;-59
2023/07/08 12:48:02;;;;;;;6.65;4.10;;;30.10;99.90;;;;;;5010066;28;20049;-58
2023/07/08 12:50:28;;;;;;;7.00;3.70;;;30.20;99.90;;;;;;5027215;28;20096;-58
2023/07/08 12:52:53;;;;;;;8.50;3.97;;;30.10;99.90;;;;;;5029648;28;20048;-58
2023/07/08 12:55:19;;;;;;;6.45;4.15;;;30.00;99.90;;;;;;5028202;28;20044;-58
2023/07/08 12:57:48;;;;;;;4.70;3.97;;;30.10;99.90;;;;;;5029489;28;20060;-58
2023/07/08 13:00:28;;;;;;;9.65;4.18;;;30.10;99.90;;;;;;5032226;28;20115;-58